Time;durP1;ratioP1;P1;durP2;ratioP2;P2;SDS_P1;SDS_P2;PMS_P1;PMS_P2;Temp;Humidity;BMP_temperature;BMP_pressure;BME280_temperature;BME280_humidity;BME280_pressure;Samples;Min_cycle;Max_cycle;Signal;HPM_P1;HPM_P2
2022/08/25 00:01:57;;;;;;;;;;;;;;;22.10;100.00;101833.03;5114406;28;19955;-43
2022/08/25 00:04:25;;;;;;;;;;;;;;;22.10;100.00;101835.88;5113379;28;20308;-42
2022/08/25 00:06:54;;;;;;;;;;;;;;;22.09;100.00;101830.56;5110742;28;19936;-35
2022/08/25 00:09:27;;;;;;;;;;;;;;;22.07;100.00;101830.91;5114189;28;20283;-36
2022/08/25 00:11:55;;;;;;;;;;;;;;;22.06;100.00;101832.09;5112945;28;19931;-36
2022/08/25 00:14:25;;;;;;;;;;;;;;;22.03;100.00;101821.41;5114021;28;19923;-40
2022/08/25 00:16:54;;;;;;;;;;;;;;;22.01;100.00;101823.78;5113990;28;20397;-40
2022/08/25 00:19:24;;;;;;;;;;;;;;;21.99;100.00;101828.97;5094917;28;19923;-33
2022/08/25 00:21:51;;;;;;;;;;;;;;;21.97;100.00;101822.81;5111284;28;19928;-33
2022/08/25 00:24:20;;;;;;;;;;;;;;;21.96;100.00;101827.69;5113943;28;19930;-34
2022/08/25 00:26:49;;;;;;;;;;;;;;;21.94;100.00;101818.69;5112878;28;20001;-36
2022/08/25 00:29:17;;;;;;;;;;;;;;;21.93;100.00;101824.72;5095456;28;19934;-33
2022/08/25 00:31:45;;;;;;;;;;;;;;;21.90;100.00;101817.72;5113742;28;19931;-34
2022/08/25 00:34:15;;;;;;;;;;;;;;;21.88;100.00;101814.41;5112678;28;19938;-39
2022/08/25 00:36:43;;;;;;;;;;;;;;;21.87;100.00;101811.91;5113657;28;19930;-36
2022/08/25 00:39:11;;;;;;;;;;;;;;;21.85;100.00;101814.25;5112847;28;19924;-33
2022/08/25 00:41:40;;;;;;;;;;;;;;;21.84;100.00;101812.59;5113468;28;19924;-32
2022/08/25 00:44:09;;;;;;;;;;;;;;;21.83;100.00;101808.09;5113372;28;19928;-34
2022/08/25 00:46:39;;;;;;;;;;;;;;;21.81;100.00;101811.28;5112727;28;20022;-32
2022/08/25 00:49:10;;;;;;;;;;;;;;;21.80;100.00;101806.78;5113818;28;20288;-32
2022/08/25 00:51:51;;;;;;;;;;;;;;;21.79;100.00;101801.47;5113414;28;19928;-34
2022/08/25 00:54:21;;;;;;;;;;;;;;;21.78;100.00;101802.66;5112484;28;19955;-34
2022/08/25 00:56:50;;;;;;;;;;;;;;;21.76;100.00;101807.88;5113179;28;19924;-32
2022/08/25 00:59:19;;;;;;;;;;;;;;;21.75;100.00;101797.69;5112936;28;20262;-40
2022/08/25 01:01:47;;;;;;;;;;;;;;;21.73;100.00;101806.56;5112272;28;19931;-38
2022/08/25 01:04:15;;;;;;;;;;;;;;;21.71;100.00;101806.06;5113255;28;19931;-36
2022/08/25 01:06:43;;;;;;;;;;;;;;;21.70;100.00;101804.41;5112999;28;19931;-41
2022/08/25 01:09:13;;;;;;;;;;;;;;;21.67;100.00;101803.09;5112070;28;19923;-32
2022/08/25 01:11:41;;;;;;;;;;;;;;;21.67;100.00;101802.28;5112787;28;19931;-40
2022/08/25 01:14:10;;;;;;;;;;;;;;;21.64;100.00;101792.44;5113215;28;19924;-35
2022/08/25 01:16:39;;;;;;;;;;;;;;;21.63;100.00;101787.94;5112009;28;19931;-37
2022/08/25 01:19:07;;;;;;;;;;;;;;;21.64;100.00;101785.94;5111504;28;19924;-32
2022/08/25 01:21:44;;;;;;;;;;;;;;;21.62;100.00;101782.59;5112171;28;20426;-34
2022/08/25 01:24:15;;;;;;;;;;;;;;;21.60;100.00;101780.13;5112584;28;20402;-34
2022/08/25 01:26:43;;;;;;;;;;;;;;;21.60;100.00;101784.97;5112953;28;19983;-32
2022/08/25 01:29:24;;;;;;;;;;;;;;;21.58;100.00;101788.16;5111827;28;19924;-37
2022/08/25 01:31:56;;;;;;;;;;;;;;;21.57;100.00;101786.53;5112791;28;19935;-33
2022/08/25 01:34:24;;;;;;;;;;;;;;;21.55;100.00;101788.88;5112618;28;19930;-33
2022/08/25 01:36:54;;;;;;;;;;;;;;;21.54;100.00;101783.56;5112115;28;19931;-32
2022/08/25 01:39:22;;;;;;;;;;;;;;;21.53;100.00;101788.41;5112674;28;20320;-34
2022/08/25 01:41:54;;;;;;;;;;;;;;;21.51;100.00;101776.56;5112622;28;19924;-37
2022/08/25 01:44:22;;;;;;;;;;;;;;;21.49;100.00;101778.91;5111703;28;19930;-32
2022/08/25 01:46:51;;;;;;;;;;;;;;;21.48;100.00;101777.25;5112417;28;19931;-32
2022/08/25 01:49:18;;;;;;;;;;;;;;;21.46;100.00;101776.78;5112526;28;19924;-37
2022/08/25 01:51:47;;;;;;;;;;;;;;;21.45;100.00;101766.59;5111696;28;20365;-32
2022/08/25 01:54:16;;;;;;;;;;;;;;;21.42;100.00;101767.28;5112564;28;19930;-32
2022/08/25 01:56:44;;;;;;;;;;;;;;;21.41;100.00;101765.63;5111566;28;20368;-32
2022/08/25 01:59:14;;;;;;;;;;;;;;;21.38;100.00;101769.19;5112375;28;19946;-36
2022/08/25 02:01:50;;;;;;;;;;;;;;;21.38;100.00;101766.38;5112623;28;19957;-32
2022/08/25 02:04:28;;;;;;;;;;;;;;;21.36;100.00;101762.22;5111713;28;19924;-39
2022/08/25 02:06:55;;;;;;;;;;;;;;;21.35;100.00;101746.34;5112396;28;19928;-32
2022/08/25 02:09:24;;;;;;;;;;;;;;;21.35;100.00;101754.88;5112555;28;19924;-37
2022/08/25 02:11:52;;;;;;;;;;;;;;;21.32;100.00;101756.41;5111772;28;19923;-38
2022/08/25 02:14:20;;;;;;;;;;;;;;;21.31;100.00;101755.56;5112045;28;19928;-43
2022/08/25 02:16:49;;;;;;;;;;;;;;;21.28;100.00;101749.75;5110807;28;20005;-38
2022/08/25 02:19:18;;;;;;;;;;;;;;;21.28;100.00;101746.91;5109368;28;19931;-32
2022/08/25 02:21:45;;;;;;;;;;;;;;;21.25;100.00;101745.59;5110340;28;20321;-38
2022/08/25 02:24:13;;;;;;;;;;;;;;;21.23;100.00;101747.13;5110707;28;19924;-38
2022/08/25 02:26:42;;;;;;;;;;;;;;;21.21;100.00;101749.47;5110781;28;19939;-39
2022/08/25 02:29:11;;;;;;;;;;;;;;;21.18;100.00;101747.34;5109862;28;19923;-37
2022/08/25 02:31:39;;;;;;;;;;;;;;;21.15;100.00;101739.53;5115024;28;19924;-34
2022/08/25 02:34:07;;;;;;;;;;;;;;;21.13;100.00;101741.88;5115922;28;19924;-36
2022/08/25 02:36:36;;;;;;;;;;;;;;;21.11;100.00;101738.56;5115954;28;20291;-38
2022/08/25 02:39:04;;;;;;;;;;;;;;;21.08;100.00;101734.41;5115017;28;20368;-34
2022/08/25 02:41:32;;;;;;;;;;;;;;;21.07;100.00;101732.75;5115732;28;20403;-35
2022/08/25 02:44:02;;;;;;;;;;;;;;;21.06;100.00;101735.94;5115831;28;19936;-41
2022/08/25 02:46:30;;;;;;;;;;;;;;;21.04;100.00;101738.28;5114847;28;20337;-35
2022/08/25 02:48:57;;;;;;;;;;;;;;;21.02;100.00;101730.13;5115513;28;20015;-40
2022/08/25 02:51:27;;;;;;;;;;;;;;;21.01;100.00;101739.81;5115732;28;19928;-33
2022/08/25 02:53:56;;;;;;;;;;;;;;;21.00;100.00;101729.63;5114736;28;20269;-33
2022/08/25 02:56:24;;;;;;;;;;;;;;;20.98;100.00;101729.19;5115375;28;19924;-34
2022/08/25 02:58:52;;;;;;;;;;;;;;;20.96;100.00;101726.69;5115552;28;19954;-43
2022/08/25 03:01:21;;;;;;;;;;;;;;;20.95;100.00;101727.88;5114797;28;19931;-33
2022/08/25 03:03:55;;;;;;;;;;;;;;;20.93;100.00;101735.06;5115555;28;19967;-35
2022/08/25 03:06:23;;;;;;;;;;;;;;;20.91;100.00;101732.56;5097353;28;20323;-33
2022/08/25 03:08:51;;;;;;;;;;;;;;;20.90;100.00;101721.56;5114717;28;19924;-33
2022/08/25 03:11:19;;;;;;;;;;;;;;;20.89;100.00;101725.56;5115275;28;19924;-41
2022/08/25 03:13:49;;;;;;;;;;;;;;;20.89;100.00;101714.22;5115358;28;19934;-34
2022/08/25 03:16:17;;;;;;;;;;;;;;;20.88;100.00;101716.22;5114689;28;19924;-33
2022/08/25 03:18:47;;;;;;;;;;;;;;;20.88;100.00;101712.56;5115515;28;20279;-39
2022/08/25 03:21:14;;;;;;;;;;;;;;;20.88;100.00;101707.72;5114138;28;20479;-33
2022/08/25 03:23:43;;;;;;;;;;;;;;;20.88;100.00;101718.25;5114962;28;19924;-35
2022/08/25 03:28:57;;;;;;;;;;;;;;;20.86;100.00;101701.56;5114236;28;19924;-34
2022/08/25 03:31:26;;;;;;;;;;;;;;;20.85;100.00;101693.41;5111269;28;19935;-32
2022/08/25 03:33:55;;;;;;;;;;;;;;;20.84;100.00;101701.09;5115184;28;19944;-34
2022/08/25 03:36:23;;;;;;;;;;;;;;;20.84;100.00;101698.25;5114059;28;19930;-35
2022/08/25 03:38:51;;;;;;;;;;;;;;;20.81;100.00;101698.94;5114898;28;20277;-41
2022/08/25 03:41:20;;;;;;;;;;;;;;;20.81;100.00;101696.09;5114072;28;19928;-32
2022/08/25 03:43:48;;;;;;;;;;;;;;;20.80;100.00;101694.44;5113619;28;19931;-32
2022/08/25 03:46:18;;;;;;;;;;;;;;;20.78;100.00;101691.16;5114697;28;19939;-34
2022/08/25 03:48:45;;;;;;;;;;;;;;;20.78;100.00;101691.16;5112201;28;20026;-33
2022/08/25 03:51:18;;;;;;;;;;;;;;;20.75;100.00;101680.50;5113691;28;20053;-33
2022/08/25 03:53:46;;;;;;;;;;;;;;;20.73;100.00;101671.50;5114477;28;20003;-36
2022/08/25 03:56:13;;;;;;;;;;;;;;;20.73;100.00;101671.50;5106609;28;19934;-36
2022/08/25 03:58:41;;;;;;;;;;;;;;;20.71;100.00;101665.34;5114772;28;19928;-37
2022/08/25 04:01:08;;;;;;;;;;;;;;;20.70;100.00;101663.69;5114494;28;19924;-39
2022/08/25 04:03:36;;;;;;;;;;;;;;;20.69;100.00;101661.19;5112309;28;20296;-34
2022/08/25 04:06:05;;;;;;;;;;;;;;;20.68;100.00;101671.72;5112698;28;19928;-33
2022/08/25 04:08:34;;;;;;;;;;;;;;;20.65;100.00;101663.88;5113345;28;19935;-34
2022/08/25 04:11:05;;;;;;;;;;;;;;;20.64;100.00;101660.22;5113375;28;19923;-32
2022/08/25 04:13:33;;;;;;;;;;;;;;;20.63;100.00;101661.41;5113954;28;19928;-38
2022/08/25 04:16:00;;;;;;;;;;;;;;;20.61;100.00;101652.41;5113461;28;20198;-33
2022/08/25 04:18:29;;;;;;;;;;;;;;;20.61;100.00;101654.41;5113189;28;20022;-39
2022/08/25 04:21:04;;;;;;;;;;;;;;;20.59;100.00;101648.25;5113586;28;20330;-34
2022/08/25 04:23:31;;;;;;;;;;;;;;;20.57;100.00;101651.47;5113789;28;19938;-42
2022/08/25 04:26:00;;;;;;;;;;;;;;;20.56;100.00;101654.66;5112872;28;19931;-33
2022/08/25 04:28:28;;;;;;;;;;;;;;;20.54;100.00;101645.66;5113263;28;19931;-37
2022/08/25 04:30:56;;;;;;;;;;;;;;;20.51;100.00;101638.66;5113134;28;19923;-36
2022/08/25 04:33:23;;;;;;;;;;;;;;;20.49;100.00;101628.84;5112066;28;19927;-33
2022/08/25 04:35:51;;;;;;;;;;;;;;;20.48;100.00;101630.84;5112900;28;19924;-38
2022/08/25 04:38:18;;;;;;;;;;;;;;;20.45;100.00;101637.22;5111948;28;19969;-37
2022/08/25 04:40:46;;;;;;;;;;;;;;;20.43;100.00;101628.22;5110822;28;19924;-31
2022/08/25 04:43:15;;;;;;;;;;;;;;;20.41;100.00;101638.25;5111678;28;19958;-36
2022/08/25 04:45:42;;;;;;;;;;;;;;;20.38;100.00;101639.81;5109501;28;20309;-34
2022/08/25 04:48:10;;;;;;;;;;;;;;;20.36;100.00;101644.13;5112285;28;19955;-34
2022/08/25 04:50:38;;;;;;;;;;;;;;;20.34;100.00;101635.13;5112015;28;19927;-38
2022/08/25 04:53:06;;;;;;;;;;;;;;;20.32;100.00;101635.47;5110649;28;19924;-34
2022/08/25 04:55:39;;;;;;;;;;;;;;;20.30;100.00;101630.16;5112213;28;19934;-37
2022/08/25 04:58:07;;;;;;;;;;;;;;;20.28;100.00;101629.66;5112084;28;20352;-33
2022/08/25 05:00:45;;;;;;;;;;;;;;;20.26;100.00;101628.34;5111482;28;19924;-32
2022/08/25 05:03:13;;;;;;;;;;;;;;;20.26;100.00;101640.50;5111958;28;19923;-34
2022/08/25 05:05:40;;;;;;;;;;;;;;;20.25;100.00;101630.34;5111820;28;19930;-32
2022/08/25 05:08:08;;;;;;;;;;;;;;;20.24;100.00;101625.84;5111441;28;19927;-34
2022/08/25 05:10:38;;;;;;;;;;;;;;;20.23;100.00;101629.88;5111757;28;20356;-32
2022/08/25 05:13:08;;;;;;;;;;;;;;;20.22;100.00;101633.03;5111418;28;19931;-32
2022/08/25 05:15:51;;;;;;;;;;;;;;;20.23;100.00;101634.72;5110849;28;19927;-33
2022/08/25 05:18:20;;;;;;;;;;;;;;;20.22;100.00;101639.53;5111858;28;19923;-32
2022/08/25 05:20:48;;;;;;;;;;;;;;;20.23;100.00;101638.38;5110869;28;19928;-33
2022/08/25 05:23:15;;;;;;;;;;;;;;;20.24;100.00;101651.38;5111618;28;19938;-34
2022/08/25 05:25:43;;;;;;;;;;;;;;;20.25;100.00;101641.69;5111644;28;20373;-34
2022/08/25 05:28:11;;;;;;;;;;;;;;;20.28;100.00;101635.34;5110393;28;20331;-42
2022/08/25 05:30:39;;;;;;;;;;;;;;;20.32;100.00;101643.16;5111677;28;19928;-36
2022/08/25 05:33:07;;;;;;;;;;;;;;;20.35;100.00;101633.97;5112104;28;19928;-33
2022/08/25 05:35:36;;;;;;;;;;;;;;;20.37;100.00;101626.81;5111427;28;19954;-33
2022/08/25 05:38:04;;;;;;;;;;;;;;;20.42;100.00;101623.72;5112583;28;19923;-32
2022/08/25 05:40:33;;;;;;;;;;;;;;;20.46;100.00;101626.69;5112522;28;19931;-38
2022/08/25 05:43:02;;;;;;;;;;;;;;;20.50;100.00;101639.00;5111660;28;19928;-40
2022/08/25 05:45:30;;;;;;;;;;;;;;;20.54;100.00;101637.16;5112640;28;20416;-36
2022/08/25 05:47:58;;;;;;;;;;;;;;;20.58;100.00;101630.41;5112509;28;19946;-33
2022/08/25 05:50:26;;;;;;;;;;;;;;;20.63;100.00;101624.53;5111279;28;20018;-34
2022/08/25 05:52:55;;;;;;;;;;;;;;;20.69;100.00;101627.16;5112239;28;19924;-34
2022/08/25 05:55:22;;;;;;;;;;;;;;;20.77;100.00;101627.06;5112305;28;20019;-34
2022/08/25 05:57:50;;;;;;;;;;;;;;;20.85;100.00;101623.31;5111305;28;19930;-38
2022/08/25 06:00:18;;;;;;;;;;;;;;;20.92;100.00;101622.75;5112391;28;20291;-41
2022/08/25 06:02:47;;;;;;;;;;;;;;;21.00;100.00;101624.63;5111626;28;19931;-40
2022/08/25 06:05:16;;;;;;;;;;;;;;;21.08;100.00;101622.88;5115694;28;20109;-36
2022/08/25 06:07:43;;;;;;;;;;;;;;;21.15;100.00;101617.47;5116444;28;19924;-34
2022/08/25 06:10:13;;;;;;;;;;;;;;;21.23;100.00;101619.38;5115839;28;20288;-41
2022/08/25 06:12:43;;;;;;;;;;;;;;;21.30;100.00;101622.47;5116064;28;19924;-34
2022/08/25 06:15:11;;;;;;;;;;;;;;;21.38;100.00;101630.06;5116417;28;19946;-32
2022/08/25 06:17:40;;;;;;;;;;;;;;;21.44;100.00;101625.78;5106535;28;20385;-32
2022/08/25 06:20:09;;;;;;;;;;;;;;;21.51;100.00;101630.88;5115905;28;19924;-32
2022/08/25 06:22:37;;;;;;;;;;;;;;;21.58;100.00;101631.94;5116651;28;19938;-42
2022/08/25 06:25:05;;;;;;;;;;;;;;;21.64;100.00;101629.69;5115392;28;19938;-35
2022/08/25 06:27:34;;;;;;;;;;;;;;;21.73;100.00;101626.75;5115660;28;19928;-33
2022/08/25 06:30:03;;;;;;;;;;;;;;;21.81;100.00;101632.28;5115922;28;19924;-33
2022/08/25 06:32:35;;;;;;;;;;;;;;;21.88;100.00;101624.00;5114746;28;19927;-32
2022/08/25 06:35:03;;;;;;;;;;;;;;;21.96;100.00;101627.91;5115849;28;19935;-32
2022/08/25 06:37:31;;;;;;;;;;;;;;;22.02;100.00;101625.66;5115765;28;19928;-33
2022/08/25 06:39:58;;;;;;;;;;;;;;;22.06;100.00;101627.41;5111894;28;19923;-41
2022/08/25 06:42:26;;;;;;;;;;;;;;;22.11;100.00;101621.50;5115400;28;20480;-33
2022/08/25 06:44:55;;;;;;;;;;;;;;;22.16;100.00;101626.94;5114820;28;19944;-34
2022/08/25 06:47:23;;;;;;;;;;;;;;;22.20;100.00;101622.16;5115585;28;19957;-32
2022/08/25 06:49:50;;;;;;;;;;;;;;;22.26;100.00;101615.03;5115229;28;20349;-38
2022/08/25 06:52:18;;;;;;;;;;;;;;;22.36;100.00;101615.75;5096624;28;20308;-38
2022/08/25 06:54:46;;;;;;;;;;;;;;;22.53;100.00;101621.13;5115542;28;19924;-32
2022/08/25 06:57:15;;;;;;;;;;;;;;;22.82;100.00;101617.06;5115052;28;19961;-32
2022/08/25 06:59:43;;;;;;;;;;;;;;;23.15;100.00;101620.44;5114659;28;19924;-42
2022/08/25 07:02:12;;;;;;;;;;;;;;;23.49;100.00;101618.03;5115647;28;20299;-33
2022/08/25 07:04:48;;;;;;;;;;;;;;;23.85;100.00;101616.91;5115584;28;20090;-36
2022/08/25 07:07:16;;;;;;;;;;;;;;;24.22;100.00;101615.31;5114700;28;20285;-35
2022/08/25 07:09:43;;;;;;;;;;;;;;;24.58;97.65;101610.41;5114171;28;19935;-38
2022/08/25 07:12:11;;;;;;;;;;;;;;;24.89;88.63;101604.50;5113789;28;19928;-35
2022/08/25 07:14:38;;;;;;;;;;;;;;;25.23;91.33;101607.59;5114339;28;19924;-33
2022/08/25 07:17:22;;;;;;;;;;;;;;;25.65;88.88;101618.94;5114810;28;19932;-36
2022/08/25 07:19:51;;;;;;;;;;;;;;;26.08;85.83;101609.81;5114750;28;19931;-39
2022/08/25 07:22:24;;;;;;;;;;;;;;;26.46;79.86;101607.06;5113568;28;19932;-42
2022/08/25 07:24:51;;;;;;;;;;;;;;;26.79;77.03;101612.75;5115037;28;19954;-36
2022/08/25 07:27:19;;;;;;;;;;;;;;;27.17;68.82;101622.22;5113914;28;19923;-33
2022/08/25 07:29:48;;;;;;;;;;;;;;;27.40;65.71;101612.19;5115040;28;20263;-33
2022/08/25 07:32:16;;;;;;;;;;;;;;;27.74;66.02;101621.50;5115179;28;19924;-34
2022/08/25 07:37:30;;;;;;;;;;;;;;;28.17;57.56;101609.50;5105407;28;19937;-43
2022/08/25 07:40:16;;;;;;;;;;;;;;;28.30;58.53;101614.50;5104885;28;19924;-34
2022/08/25 07:42:45;;;;;;;;;;;;;;;28.51;55.16;101607.22;5113618;28;19934;-34
2022/08/25 07:45:13;;;;;;;;;;;;;;;28.63;53.79;101619.13;5114561;28;19923;-32
2022/08/25 07:47:47;;;;;;;;;;;;;;;28.70;53.15;101612.59;5104678;28;19924;-37
2022/08/25 07:50:19;;;;;;;;;;;;;;;28.83;53.02;101605.28;5113478;28;19923;-32
2022/08/25 07:52:47;;;;;;;;;;;;;;;28.85;51.55;101617.19;5114488;28;20308;-40
2022/08/25 07:55:22;;;;;;;;;;;;;;;29.01;53.82;101613.94;5113716;28;19935;-38
2022/08/25 07:57:51;;;;;;;;;;;;;;;29.19;50.24;101611.09;5113946;28;19969;-36
2022/08/25 08:00:22;;;;;;;;;;;;;;;29.27;47.90;101613.56;5111076;28;19959;-39
2022/08/25 08:02:51;;;;;;;;;;;;;;;29.21;49.71;101614.38;5095653;28;19923;-33
2022/08/25 08:05:22;;;;;;;;;;;;;;;29.19;48.66;101609.03;5113932;28;20388;-35
2022/08/25 08:07:50;;;;;;;;;;;;;;;29.23;48.65;101606.16;5114375;28;19923;-36
2022/08/25 08:10:18;;;;;;;;;;;;;;;29.18;46.45;101606.59;5113233;28;20296;-39
2022/08/25 08:13:06;;;;;;;;;;;;;;;29.18;47.13;101603.72;5113874;28;19927;-39
2022/08/25 08:15:34;;;;;;;;;;;;;;;29.30;46.58;101601.25;5114319;28;19940;-33
2022/08/25 08:18:03;;;;;;;;;;;;;;;29.48;47.31;101601.28;5113184;28;19971;-35
2022/08/25 08:20:35;;;;;;;;;;;;;;;29.60;46.19;101585.66;5114121;28;19923;-34
2022/08/25 08:23:09;;;;;;;;;;;;;;;29.81;48.28;101594.25;5113722;28;19928;-32
2022/08/25 08:25:37;;;;;;;;;;;;;;;30.09;48.56;101588.47;5112995;28;20042;-32
2022/08/25 08:28:05;;;;;;;;;;;;;;;30.25;42.81;101582.25;5113476;28;19973;-37
2022/08/25 08:30:35;;;;;;;;;;;;;;;30.32;44.28;101582.22;5112947;28;19923;-35
2022/08/25 08:33:04;;;;;;;;;;;;;;;30.42;45.15;101581.34;5095176;28;20310;-37
2022/08/25 08:35:41;;;;;;;;;;;;;;;30.53;43.03;101583.38;5108305;28;19924;-36
2022/08/25 08:38:09;;;;;;;;;;;;;;;30.54;43.47;101579.25;5112903;28;19931;-38
2022/08/25 08:42:15;;;;;;;;;;;;;;;30.69;43.16;101578.78;5107010;28;19930;-34
2022/08/25 08:43:38;;;;;;;;;;;;;;;30.76;41.42;101580.81;5102363;28;20014;-39
2022/08/25 08:46:07;;;;;;;;;;;;;;;30.87;41.05;101578.66;5112808;28;20364;-33
2022/08/25 08:48:40;;;;;;;;;;;;;;;30.82;40.20;101574.16;5112785;28;20026;-33
2022/08/25 08:51:16;;;;;;;;;;;;;;;30.97;43.27;101580.66;5107347;28;19931;-38
2022/08/25 08:53:45;;;;;;;;;;;;;;;31.22;40.26;101583.38;5112602;28;19924;-33
2022/08/25 08:56:15;;;;;;;;;;;;;;;31.40;40.32;101580.34;5106242;28;20349;-39
2022/08/25 08:58:44;;;;;;;;;;;;;;;31.28;39.72;101590.34;5112633;28;19924;-32
2022/08/25 09:01:18;;;;;;;;;;;;;;;31.04;39.19;101589.25;5113172;28;19931;-42
2022/08/25 09:03:49;;;;;;;;;;;;;;;31.03;42.18;101584.72;5112793;28;19935;-38
2022/08/25 09:06:27;;;;;;;;;;;;;;;31.11;41.29;101580.59;5112423;28;20322;-36
2022/08/25 09:08:57;;;;;;;;;;;;;;;31.28;41.63;101572.22;5112911;28;19932;-33
2022/08/25 09:11:30;;;;;;;;;;;;;;;31.40;40.29;101578.28;5112467;28;19928;-37
2022/08/25 09:14:05;;;;;;;;;;;;;;;31.46;41.10;101581.53;5112206;28;19946;-42
2022/08/25 09:16:56;;;;;;;;;;;;;;;31.46;39.23;101575.75;5113012;28;19923;-34
2022/08/25 09:19:31;;;;;;;;;;;;;;;31.38;39.99;101582.81;5112817;28;20360;-34
2022/08/25 09:22:06;;;;;;;;;;;;;;;31.45;39.19;101579.88;5111947;28;19924;-36
2022/08/25 09:25:01;;;;;;;;;;;;;;;31.58;39.17;101581.00;5109797;28;19932;-41
2022/08/25 09:27:39;;;;;;;;;;;;;;;31.72;38.11;101586.69;5093597;28;20334;-37
2022/08/25 09:30:11;;;;;;;;;;;;;;;31.95;39.51;101579.44;5110633;28;20022;-38
2022/08/25 09:32:40;;;;;;;;;;;;;;;32.07;40.07;101576.00;5112171;28;19927;-36
2022/08/25 09:35:18;;;;;;;;;;;;;;;32.20;37.62;101571.31;5109185;28;20020;-34
2022/08/25 09:37:56;;;;;;;;;;;;;;;32.40;39.84;101566.50;5112294;28;19927;-35
2022/08/25 09:40:25;;;;;;;;;;;;;;;32.69;37.63;101558.28;5112529;28;19928;-33
2022/08/25 09:42:54;;;;;;;;;;;;;;;32.96;36.86;101558.34;5111618;28;19985;-40
2022/08/25 09:45:36;;;;;;;;;;;;;;;32.97;36.01;101562.88;5112571;28;19927;-37
2022/08/25 09:48:20;;;;;;;;;;;;;;;33.10;36.16;101569.66;5105827;28;19963;-36
2022/08/25 09:50:49;;;;;;;;;;;;;;;33.26;37.20;101559.50;5110051;28;19924;-35
2022/08/25 09:53:19;;;;;;;;;;;;;;;33.35;35.32;101560.59;5112328;28;19927;-34
2022/08/25 09:55:54;;;;;;;;;;;;;;;33.34;34.61;101558.16;5111201;28;20376;-37
2022/08/25 09:58:27;;;;;;;;;;;;;;;33.20;34.74;101559.97;5088787;28;20300;-39
2022/08/25 10:01:02;;;;;;;;;;;;;;;32.94;35.41;101557.94;5112137;28;19923;-37
2022/08/25 10:03:31;;;;;;;;;;;;;;;32.93;36.48;101553.41;5105437;28;20399;-35
2022/08/25 10:06:05;;;;;;;;;;;;;;;33.00;35.07;101558.25;5112399;28;19951;-34
2022/08/25 10:08:37;;;;;;;;;;;;;;;32.95;35.17;101555.88;5112237;28;19947;-40
2022/08/25 10:11:08;;;;;;;;;;;;;;;32.88;35.73;101553.09;5111551;28;19932;-34
2022/08/25 10:13:38;;;;;;;;;;;;;;;33.07;35.07;101552.34;5111899;28;19928;-37
2022/08/25 10:16:08;;;;;;;;;;;;;;;33.26;35.79;101545.06;5111531;28;19927;-35
2022/08/25 10:19:05;;;;;;;;;;;;;;;33.39;34.21;101543.97;5112281;28;20368;-40
2022/08/25 10:21:34;;;;;;;;;;;;;;;33.47;34.58;101545.50;5110937;28;19975;-37
2022/08/25 10:24:04;;;;;;;;;;;;;;;33.62;34.25;101539.44;5111360;28;19935;-33
2022/08/25 10:26:35;;;;;;;;;;;;;;;33.52;34.50;101539.22;5112289;28;19939;-34
2022/08/25 10:29:10;;;;;;;;;;;;;;;33.56;34.15;101533.34;5111698;28;19923;-35
2022/08/25 10:31:43;;;;;;;;;;;;;;;33.56;33.24;101523.84;5092512;28;20297;-38
2022/08/25 10:34:20;;;;;;;;;;;;;;;33.63;34.56;101524.53;5112068;28;19930;-44
2022/08/25 10:36:53;;;;;;;;;;;;;;;33.83;33.26;101534.09;5111733;28;19992;-30
2022/08/25 10:39:29;;;;;;;;;;;;;;;33.76;33.46;101522.63;5111533;28;19930;-37
2022/08/25 10:42:05;;;;;;;;;;;;;;;33.76;32.74;101522.63;5112107;28;20048;-34
2022/08/25 10:47:34;;;;;;;;;;;;;;;33.58;34.35;101510.56;5111906;28;19931;-36
2022/08/25 10:50:04;;;;;;;;;;;;;;;33.58;32.56;101506.84;5105480;28;19928;-36
2022/08/25 10:52:37;;;;;;;;;;;;;;;33.81;33.49;101507.66;5113868;28;19930;-32
2022/08/25 10:55:12;;;;;;;;;;;;;;;34.11;32.81;101502.91;5116045;28;19927;-31
2022/08/25 10:57:47;;;;;;;;;;;;;;;34.43;31.96;101497.25;5115593;28;19930;-30
2022/08/25 11:00:15;;;;;;;;;;;;;;;34.19;31.27;101487.81;5114920;28;19924;-32
2022/08/25 11:02:51;;;;;;;;;;;;;;;34.08;32.12;101477.72;5115470;28;19973;-28
2022/08/25 11:05:23;;;;;;;;;;;;;;;34.20;31.97;101477.84;5114504;28;20284;-33
2022/08/25 11:07:54;;;;;;;;;;;;;;;34.22;30.69;101472.44;5115618;28;19931;-32
2022/08/25 11:10:26;;;;;;;;;;;;;;;34.25;30.91;101473.63;5115541;28;19930;-30
2022/08/25 11:12:56;;;;;;;;;;;;;;;34.23;30.62;101471.16;5114700;28;19934;-30
2022/08/25 11:15:27;;;;;;;;;;;;;;;34.03;29.87;101469.56;5115311;28;19941;-30
2022/08/25 11:17:59;;;;;;;;;;;;;;;33.85;30.63;101473.66;5115054;28;19931;-36
2022/08/25 11:20:35;;;;;;;;;;;;;;;33.84;30.63;101466.22;5114572;28;19924;-31
2022/08/25 11:23:08;;;;;;;;;;;;;;;33.87;30.53;101452.94;5115193;28;20358;-34
2022/08/25 11:25:42;;;;;;;;;;;;;;;33.89;30.83;101462.00;5115168;28;19927;-32
2022/08/25 11:28:13;;;;;;;;;;;;;;;33.84;30.82;101457.53;5114241;28;19924;-33
2022/08/25 11:30:41;;;;;;;;;;;;;;;33.75;30.26;101453.59;5114961;28;19930;-31
2022/08/25 11:33:12;;;;;;;;;;;;;;;33.81;29.41;101455.53;5114847;28;20400;-33
2022/08/25 11:35:42;;;;;;;;;;;;;;;33.77;30.01;101451.91;5114375;28;19959;-30
2022/08/25 11:38:21;;;;;;;;;;;;;;;33.84;30.19;101451.75;5096472;28;20324;-31
2022/08/25 11:40:54;;;;;;;;;;;;;;;33.69;29.91;101453.28;5113789;28;19938;-34
2022/08/25 11:43:29;;;;;;;;;;;;;;;33.78;30.26;101459.31;5114831;28;19928;-30
2022/08/25 11:46:13;;;;;;;;;;;;;;;33.88;29.68;101455.38;5112174;28;19923;-34
2022/08/25 11:48:45;;;;;;;;;;;;;;;33.78;29.75;101453.50;5100442;28;19972;-37
2022/08/25 11:51:28;;;;;;;;;;;;;;;33.63;30.52;101446.34;5113281;28;20385;-30
2022/08/25 11:54:14;;;;;;;;;;;;;;;33.58;30.34;101460.53;5112492;28;20299;-30
2022/08/25 11:56:49;;;;;;;;;;;;;;;33.60;30.36;101450.13;5112162;28;19927;-36
2022/08/25 11:59:32;;;;;;;;;;;;;;;33.47;29.44;101461.56;5110995;28;19994;-32
2022/08/25 12:02:00;;;;;;;;;;;;;;;33.46;30.21;101450.44;5111604;28;19927;-33
2022/08/25 12:04:35;;;;;;;;;;;;;;;33.40;30.17;101455.09;5112902;28;20443;-31
2022/08/25 12:07:29;;;;;;;;;;;;;;;33.28;30.46;101447.88;5113168;28;20046;-31
2022/08/25 12:10:11;;;;;;;;;;;;;;;33.09;30.95;101448.63;5112086;28;19928;-30
2022/08/25 12:12:56;;;;;;;;;;;;;;;32.83;30.94;101448.22;5113042;28;19935;-34
2022/08/25 12:15:25;;;;;;;;;;;;;;;32.66;30.77;101449.31;5113068;28;20274;-30
2022/08/25 12:18:08;;;;;;;;;;;;;;;32.36;30.66;101449.38;5112666;28;20019;-33
2022/08/25 12:21:02;;;;;;;;;;;;;;;32.28;31.75;101450.72;5113243;28;19962;-32
2022/08/25 12:23:31;;;;;;;;;;;;;;;32.10;31.92;101453.84;5111610;28;19962;-36
2022/08/25 12:26:02;;;;;;;;;;;;;;;31.98;32.42;101449.44;5110322;28;19923;-32
2022/08/25 12:28:43;;;;;;;;;;;;;;;32.02;31.76;101452.28;5112667;28;19928;-31
2022/08/25 12:31:18;;;;;;;;;;;;;;;32.10;32.23;101451.78;5110205;28;20398;-37
2022/08/25 12:33:54;;;;;;;;;;;;;;;32.26;32.77;101435.91;5112332;28;19931;-33
2022/08/25 12:36:27;;;;;;;;;;;;;;;32.42;31.79;101445.56;5110197;28;19932;-30
2022/08/25 12:39:07;;;;;;;;;;;;;;;32.59;32.23;101443.63;5111876;28;19935;-32
2022/08/25 12:41:35;;;;;;;;;;;;;;;32.81;33.45;101455.69;5110989;28;19923;-38
2022/08/25 12:44:17;;;;;;;;;;;;;;;33.06;38.07;101461.06;5112068;28;19963;-30
2022/08/25 12:46:46;;;;;;;;;;;;;;;32.98;39.33;101454.56;5111041;28;19946;-30
2022/08/25 12:49:31;;;;;;;;;;;;;;;32.87;40.19;101453.94;5112077;28;19970;-32
2022/08/25 12:52:00;;;;;;;;;;;;;;;32.80;40.88;101459.84;5110743;28;19924;-31
2022/08/25 12:54:37;;;;;;;;;;;;;;;32.88;40.32;101449.81;5112288;28;19934;-30
2022/08/25 12:57:15;;;;;;;;;;;;;;;33.09;40.14;101466.78;5110719;28;20293;-36
2022/08/25 12:59:53;;;;;;;;;;;;;;;33.28;40.04;101455.75;5109792;28;19981;-32